sensor_id;sensor_type;location;lat;lon;timestamp;P1;durP1;ratioP1;P2;durP2;ratioP2
32321;SDS011;61553;48.994;8.940;2023-04-24T00:01:47;2.33;;;0.70;;
32321;SDS011;61553;48.994;8.940;2023-04-24T00:04:13;4.95;;;0.68;;
32321;SDS011;61553;48.994;8.940;2023-04-24T00:06:41;0.88;;;0.52;;
32321;SDS011;61553;48.994;8.940;2023-04-24T00:09:07;2.22;;;0.70;;
32321;SDS011;61553;48.994;8.940;2023-04-24T00:11:36;4.18;;;0.85;;
32321;SDS011;61553;48.994;8.940;2023-04-24T00:14:02;2.17;;;0.80;;
32321;SDS011;61553;48.994;8.940;2023-04-24T00:16:27;2.03;;;0.70;;
32321;SDS011;61553;48.994;8.940;2023-04-24T00:18:53;1.92;;;0.82;;
32321;SDS011;61553;48.994;8.940;2023-04-24T00:21:19;4.75;;;0.70;;
32321;SDS011;61553;48.994;8.940;2023-04-24T00:23:45;2.30;;;0.60;;
32321;SDS011;61553;48.994;8.940;2023-04-24T00:26:11;1.80;;;0.60;;
32321;SDS011;61553;48.994;8.940;2023-04-24T00:28:36;2.97;;;0.82;;
32321;SDS011;61553;48.994;8.940;2023-04-24T00:31:02;1.63;;;0.60;;
32321;SDS011;61553;48.994;8.940;2023-04-24T00:33:28;1.10;;;0.52;;
32321;SDS011;61553;48.994;8.940;2023-04-24T00:35:53;1.85;;;0.50;;
32321;SDS011;61553;48.994;8.940;2023-04-24T00:38:19;2.83;;;0.60;;
32321;SDS011;61553;48.994;8.940;2023-04-24T00:40:45;2.00;;;0.60;;
32321;SDS011;61553;48.994;8.940;2023-04-24T00:43:10;1.35;;;0.60;;
32321;SDS011;61553;48.994;8.940;2023-04-24T00:45:36;1.45;;;0.50;;
32321;SDS011;61553;48.994;8.940;2023-04-24T00:48:02;3.40;;;0.68;;
32321;SDS011;61553;48.994;8.940;2023-04-24T00:50:28;2.60;;;0.60;;
32321;SDS011;61553;48.994;8.940;2023-04-24T00:52:55;1.92;;;0.60;;
32321;SDS011;61553;48.994;8.940;2023-04-24T00:55:21;4.20;;;0.70;;
32321;SDS011;61553;48.994;8.940;2023-04-24T00:57:46;1.35;;;0.70;;
32321;SDS011;61553;48.994;8.940;2023-04-24T01:00:14;1.90;;;0.68;;
32321;SDS011;61553;48.994;8.940;2023-04-24T01:02:43;2.47;;;0.75;;
32321;SDS011;61553;48.994;8.940;2023-04-24T01:05:10;1.10;;;0.50;;
32321;SDS011;61553;48.994;8.940;2023-04-24T01:07:37;2.40;;;0.70;;
32321;SDS011;61553;48.994;8.940;2023-04-24T01:10:06;1.52;;;0.63;;
32321;SDS011;61553;48.994;8.940;2023-04-24T01:12:33;2.33;;;0.77;;
32321;SDS011;61553;48.994;8.940;2023-04-24T01:14:58;2.08;;;0.57;;
32321;SDS011;61553;48.994;8.940;2023-04-24T01:17:24;1.90;;;0.63;;
32321;SDS011;61553;48.994;8.940;2023-04-24T01:19:50;1.90;;;0.60;;
32321;SDS011;61553;48.994;8.940;2023-04-24T01:22:18;4.45;;;0.80;;
32321;SDS011;61553;48.994;8.940;2023-04-24T01:24:46;2.30;;;0.60;;
32321;SDS011;61553;48.994;8.940;2023-04-24T01:27:11;2.83;;;0.63;;
32321;SDS011;61553;48.994;8.940;2023-04-24T01:29:37;2.90;;;0.77;;
32321;SDS011;61553;48.994;8.940;2023-04-24T01:32:03;1.92;;;0.73;;
32321;SDS011;61553;48.994;8.940;2023-04-24T01:34:30;2.97;;;0.70;;
32321;SDS011;61553;48.994;8.940;2023-04-24T01:36:56;1.88;;;0.60;;
32321;SDS011;61553;48.994;8.940;2023-04-24T01:39:22;2.33;;;0.80;;
32321;SDS011;61553;48.994;8.940;2023-04-24T01:41:50;2.55;;;0.77;;
32321;SDS011;61553;48.994;8.940;2023-04-24T01:44:16;1.02;;;0.40;;
32321;SDS011;61553;48.994;8.940;2023-04-24T01:46:43;0.75;;;0.40;;
32321;SDS011;61553;48.994;8.940;2023-04-24T01:49:09;2.38;;;0.60;;
32321;SDS011;61553;48.994;8.940;2023-04-24T01:51:35;4.40;;;0.75;;
32321;SDS011;61553;48.994;8.940;2023-04-24T01:54:01;2.10;;;0.65;;
32321;SDS011;61553;48.994;8.940;2023-04-24T01:56:28;2.65;;;0.60;;
32321;SDS011;61553;48.994;8.940;2023-04-24T01:58:55;1.80;;;0.60;;
32321;SDS011;61553;48.994;8.940;2023-04-24T02:01:23;3.83;;;0.90;;
32321;SDS011;61553;48.994;8.940;2023-04-24T02:03:49;3.25;;;0.68;;
32321;SDS011;61553;48.994;8.940;2023-04-24T02:06:14;1.55;;;0.60;;
32321;SDS011;61553;48.994;8.940;2023-04-24T02:08:40;1.52;;;0.60;;
32321;SDS011;61553;48.994;8.940;2023-04-24T02:11:06;1.27;;;0.40;;
32321;SDS011;61553;48.994;8.940;2023-04-24T02:13:33;2.80;;;0.63;;
32321;SDS011;61553;48.994;8.940;2023-04-24T02:15:59;1.67;;;0.60;;
32321;SDS011;61553;48.994;8.940;2023-04-24T02:18:24;1.50;;;0.70;;
32321;SDS011;61553;48.994;8.940;2023-04-24T02:20:50;1.02;;;0.60;;
32321;SDS011;61553;48.994;8.940;2023-04-24T02:23:16;1.02;;;0.60;;
32321;SDS011;61553;48.994;8.940;2023-04-24T02:25:41;1.40;;;0.60;;
32321;SDS011;61553;48.994;8.940;2023-04-24T02:28:07;1.75;;;0.60;;
32321;SDS011;61553;48.994;8.940;2023-04-24T02:30:32;1.42;;;0.82;;
32321;SDS011;61553;48.994;8.940;2023-04-24T02:32:58;4.75;;;1.00;;
32321;SDS011;61553;48.994;8.940;2023-04-24T02:35:24;2.95;;;0.82;;
32321;SDS011;61553;48.994;8.940;2023-04-24T02:37:50;1.17;;;0.45;;
32321;SDS011;61553;48.994;8.940;2023-04-24T02:40:15;1.13;;;0.50;;
32321;SDS011;61553;48.994;8.940;2023-04-24T02:42:41;4.72;;;0.80;;
32321;SDS011;61553;48.994;8.940;2023-04-24T02:45:07;3.22;;;0.80;;
32321;SDS011;61553;48.994;8.940;2023-04-24T02:47:33;2.17;;;0.63;;
32321;SDS011;61553;48.994;8.940;2023-04-24T02:49:58;3.40;;;0.90;;
32321;SDS011;61553;48.994;8.940;2023-04-24T02:52:26;2.00;;;0.60;;
32321;SDS011;61553;48.994;8.940;2023-04-24T02:54:52;3.15;;;0.80;;
32321;SDS011;61553;48.994;8.940;2023-04-24T02:57:18;1.20;;;0.50;;
32321;SDS011;61553;48.994;8.940;2023-04-24T02:59:44;2.70;;;0.80;;
32321;SDS011;61553;48.994;8.940;2023-04-24T03:02:09;3.95;;;0.60;;
32321;SDS011;61553;48.994;8.940;2023-04-24T03:04:35;2.40;;;0.50;;
32321;SDS011;61553;48.994;8.940;2023-04-24T03:07:01;2.05;;;0.88;;
32321;SDS011;61553;48.994;8.940;2023-04-24T03:09:27;1.80;;;0.50;;
32321;SDS011;61553;48.994;8.940;2023-04-24T03:11:52;1.90;;;1.25;;
32321;SDS011;61553;48.994;8.940;2023-04-24T03:14:18;1.83;;;0.70;;
32321;SDS011;61553;48.994;8.940;2023-04-24T03:16:44;1.90;;;1.00;;
32321;SDS011;61553;48.994;8.940;2023-04-24T03:19:10;2.58;;;0.95;;
32321;SDS011;61553;48.994;8.940;2023-04-24T03:21:35;2.30;;;0.80;;
32321;SDS011;61553;48.994;8.940;2023-04-24T03:24:05;2.28;;;1.00;;
32321;SDS011;61553;48.994;8.940;2023-04-24T03:26:33;2.83;;;0.77;;
32321;SDS011;61553;48.994;8.940;2023-04-24T03:29:00;2.83;;;0.73;;
32321;SDS011;61553;48.994;8.940;2023-04-24T03:31:25;3.25;;;0.80;;
32321;SDS011;61553;48.994;8.940;2023-04-24T03:33:51;2.88;;;0.88;;
32321;SDS011;61553;48.994;8.940;2023-04-24T03:36:17;5.97;;;0.70;;
32321;SDS011;61553;48.994;8.940;2023-04-24T03:38:44;2.60;;;0.80;;
32321;SDS011;61553;48.994;8.940;2023-04-24T03:41:10;2.42;;;0.80;;
32321;SDS011;61553;48.994;8.940;2023-04-24T03:43:36;0.57;;;0.25;;
32321;SDS011;61553;48.994;8.940;2023-04-24T03:46:02;1.45;;;0.60;;
32321;SDS011;61553;48.994;8.940;2023-04-24T03:48:28;3.63;;;0.90;;
32321;SDS011;61553;48.994;8.940;2023-04-24T03:50:54;1.92;;;0.70;;
32321;SDS011;61553;48.994;8.940;2023-04-24T03:53:20;2.03;;;0.73;;
32321;SDS011;61553;48.994;8.940;2023-04-24T03:55:45;5.28;;;0.80;;
32321;SDS011;61553;48.994;8.940;2023-04-24T03:58:11;6.60;;;1.02;;
32321;SDS011;61553;48.994;8.940;2023-04-24T04:00:39;1.13;;;0.55;;
32321;SDS011;61553;48.994;8.940;2023-04-24T04:03:05;3.85;;;1.05;;
32321;SDS011;61553;48.994;8.940;2023-04-24T04:05:31;2.33;;;0.80;;
32321;SDS011;61553;48.994;8.940;2023-04-24T04:07:56;1.85;;;1.02;;
32321;SDS011;61553;48.994;8.940;2023-04-24T04:10:22;3.05;;;1.00;;
32321;SDS011;61553;48.994;8.940;2023-04-24T04:12:48;7.45;;;1.70;;
32321;SDS011;61553;48.994;8.940;2023-04-24T04:15:13;3.17;;;1.40;;
32321;SDS011;61553;48.994;8.940;2023-04-24T04:17:39;2.30;;;1.00;;
32321;SDS011;61553;48.994;8.940;2023-04-24T04:20:05;3.88;;;0.98;;
32321;SDS011;61553;48.994;8.940;2023-04-24T04:22:34;3.40;;;1.30;;
32321;SDS011;61553;48.994;8.940;2023-04-24T04:25:00;4.47;;;1.60;;
32321;SDS011;61553;48.994;8.940;2023-04-24T04:27:26;5.55;;;1.70;;
32321;SDS011;61553;48.994;8.940;2023-04-24T04:29:53;2.67;;;1.45;;
32321;SDS011;61553;48.994;8.940;2023-04-24T04:32:21;5.35;;;1.63;;
32321;SDS011;61553;48.994;8.940;2023-04-24T04:34:47;4.13;;;1.40;;
32321;SDS011;61553;48.994;8.940;2023-04-24T04:37:14;2.90;;;1.40;;
32321;SDS011;61553;48.994;8.940;2023-04-24T04:39:40;4.28;;;1.52;;
32321;SDS011;61553;48.994;8.940;2023-04-24T04:42:06;4.78;;;1.80;;
32321;SDS011;61553;48.994;8.940;2023-04-24T04:44:31;3.75;;;1.77;;
32321;SDS011;61553;48.994;8.940;2023-04-24T04:46:57;3.35;;;1.30;;
32321;SDS011;61553;48.994;8.940;2023-04-24T04:49:25;2.63;;;1.42;;
32321;SDS011;61553;48.994;8.940;2023-04-24T04:51:53;3.70;;;1.83;;
32321;SDS011;61553;48.994;8.940;2023-04-24T04:54:18;3.20;;;1.60;;
32321;SDS011;61553;48.994;8.940;2023-04-24T04:56:44;4.43;;;1.80;;
32321;SDS011;61553;48.994;8.940;2023-04-24T04:59:10;4.32;;;1.73;;
32321;SDS011;61553;48.994;8.940;2023-04-24T05:01:36;4.05;;;1.95;;
32321;SDS011;61553;48.994;8.940;2023-04-24T05:04:01;3.90;;;2.15;;
32321;SDS011;61553;48.994;8.940;2023-04-24T05:06:27;5.50;;;1.90;;
32321;SDS011;61553;48.994;8.940;2023-04-24T05:08:53;4.70;;;1.90;;
32321;SDS011;61553;48.994;8.940;2023-04-24T05:11:22;4.85;;;1.88;;
32321;SDS011;61553;48.994;8.940;2023-04-24T05:13:48;5.00;;;2.03;;
32321;SDS011;61553;48.994;8.940;2023-04-24T05:16:13;6.28;;;2.72;;
32321;SDS011;61553;48.994;8.940;2023-04-24T05:18:39;4.57;;;2.33;;
32321;SDS011;61553;48.994;8.940;2023-04-24T05:21:05;4.30;;;2.42;;
32321;SDS011;61553;48.994;8.940;2023-04-24T05:23:31;6.25;;;2.95;;
32321;SDS011;61553;48.994;8.940;2023-04-24T05:25:56;4.72;;;2.42;;
32321;SDS011;61553;48.994;8.940;2023-04-24T05:28:22;4.97;;;2.55;;
32321;SDS011;61553;48.994;8.940;2023-04-24T05:30:48;6.03;;;2.60;;
32321;SDS011;61553;48.994;8.940;2023-04-24T05:33:13;3.97;;;2.40;;
32321;SDS011;61553;48.994;8.940;2023-04-24T05:35:40;4.47;;;2.50;;
32321;SDS011;61553;48.994;8.940;2023-04-24T05:38:12;5.93;;;2.55;;
32321;SDS011;61553;48.994;8.940;2023-04-24T05:40:38;5.60;;;2.45;;
32321;SDS011;61553;48.994;8.940;2023-04-24T05:43:04;3.95;;;2.40;;
32321;SDS011;61553;48.994;8.940;2023-04-24T05:45:30;5.15;;;2.15;;
32321;SDS011;61553;48.994;8.940;2023-04-24T05:47:55;4.53;;;2.38;;
32321;SDS011;61553;48.994;8.940;2023-04-24T05:50:21;4.38;;;2.42;;
32321;SDS011;61553;48.994;8.940;2023-04-24T05:52:46;6.78;;;2.70;;
32321;SDS011;61553;48.994;8.940;2023-04-24T05:55:12;4.60;;;2.80;;
32321;SDS011;61553;48.994;8.940;2023-04-24T05:57:38;5.35;;;3.00;;
32321;SDS011;61553;48.994;8.940;2023-04-24T06:00:04;6.43;;;2.60;;
32321;SDS011;61553;48.994;8.940;2023-04-24T06:02:31;4.53;;;2.42;;
32321;SDS011;61553;48.994;8.940;2023-04-24T06:04:58;4.78;;;2.40;;
32321;SDS011;61553;48.994;8.940;2023-04-24T06:07:24;4.25;;;2.42;;
32321;SDS011;61553;48.994;8.940;2023-04-24T06:09:51;3.60;;;1.65;;
32321;SDS011;61553;48.994;8.940;2023-04-24T06:12:17;5.25;;;2.00;;
32321;SDS011;61553;48.994;8.940;2023-04-24T06:14:43;3.47;;;1.85;;
32321;SDS011;61553;48.994;8.940;2023-04-24T06:17:08;4.63;;;1.90;;
32321;SDS011;61553;48.994;8.940;2023-04-24T06:19:34;3.60;;;1.95;;
32321;SDS011;61553;48.994;8.940;2023-04-24T06:22:00;2.60;;;1.55;;
32321;SDS011;61553;48.994;8.940;2023-04-24T06:24:28;6.20;;;2.00;;
32321;SDS011;61553;48.994;8.940;2023-04-24T06:26:54;3.75;;;2.28;;
32321;SDS011;61553;48.994;8.940;2023-04-24T06:29:21;2.38;;;1.30;;
32321;SDS011;61553;48.994;8.940;2023-04-24T06:31:47;5.63;;;1.50;;
32321;SDS011;61553;48.994;8.940;2023-04-24T06:34:12;5.13;;;1.40;;
32321;SDS011;61553;48.994;8.940;2023-04-24T06:36:38;3.85;;;1.55;;
32321;SDS011;61553;48.994;8.940;2023-04-24T06:39:04;5.90;;;1.55;;
32321;SDS011;61553;48.994;8.940;2023-04-24T06:41:30;5.88;;;2.30;;
32321;SDS011;61553;48.994;8.940;2023-04-24T06:43:56;2.88;;;1.60;;
32321;SDS011;61553;48.994;8.940;2023-04-24T06:46:21;2.25;;;1.38;;
32321;SDS011;61553;48.994;8.940;2023-04-24T06:48:49;3.42;;;2.10;;
32321;SDS011;61553;48.994;8.940;2023-04-24T06:51:15;4.10;;;1.70;;
32321;SDS011;61553;48.994;8.940;2023-04-24T06:53:42;3.85;;;1.67;;
32321;SDS011;61553;48.994;8.940;2023-04-24T06:56:08;4.47;;;1.90;;
32321;SDS011;61553;48.994;8.940;2023-04-24T06:58:33;3.45;;;1.77;;
32321;SDS011;61553;48.994;8.940;2023-04-24T07:00:59;4.22;;;1.63;;
32321;SDS011;61553;48.994;8.940;2023-04-24T07:03:25;7.13;;;1.85;;
32321;SDS011;61553;48.994;8.940;2023-04-24T07:05:50;3.05;;;1.60;;
32321;SDS011;61553;48.994;8.940;2023-04-24T07:08:16;3.63;;;1.58;;
32321;SDS011;61553;48.994;8.940;2023-04-24T07:10:42;7.75;;;1.67;;
32321;SDS011;61553;48.994;8.940;2023-04-24T07:13:09;2.58;;;1.58;;
32321;SDS011;61553;48.994;8.940;2023-04-24T07:15:35;4.43;;;1.58;;
32321;SDS011;61553;48.994;8.940;2023-04-24T07:18:01;3.80;;;1.50;;
32321;SDS011;61553;48.994;8.940;2023-04-24T07:20:26;3.53;;;1.63;;
32321;SDS011;61553;48.994;8.940;2023-04-24T07:22:52;6.15;;;1.58;;
32321;SDS011;61553;48.994;8.940;2023-04-24T07:25:19;3.85;;;1.73;;
32321;SDS011;61553;48.994;8.940;2023-04-24T07:27:44;3.78;;;1.58;;
32321;SDS011;61553;48.994;8.940;2023-04-24T07:30:10;4.03;;;2.15;;
32321;SDS011;61553;48.994;8.940;2023-04-24T07:32:36;4.10;;;1.35;;
32321;SDS011;61553;48.994;8.940;2023-04-24T07:35:02;5.65;;;1.50;;
32321;SDS011;61553;48.994;8.940;2023-04-24T07:37:28;2.97;;;1.33;;
32321;SDS011;61553;48.994;8.940;2023-04-24T07:39:54;6.68;;;1.58;;
32321;SDS011;61553;48.994;8.940;2023-04-24T07:42:20;4.63;;;1.40;;
32321;SDS011;61553;48.994;8.940;2023-04-24T07:44:45;3.85;;;1.25;;
32321;SDS011;61553;48.994;8.940;2023-04-24T07:47:12;3.00;;;1.38;;
32321;SDS011;61553;48.994;8.940;2023-04-24T07:49:41;6.90;;;1.60;;
32321;SDS011;61553;48.994;8.940;2023-04-24T07:52:07;2.33;;;1.10;;
32321;SDS011;61553;48.994;8.940;2023-04-24T07:54:33;2.80;;;1.30;;
32321;SDS011;61553;48.994;8.940;2023-04-24T07:56:58;1.75;;;0.95;;
32321;SDS011;61553;48.994;8.940;2023-04-24T07:59:25;3.20;;;1.20;;
32321;SDS011;61553;48.994;8.940;2023-04-24T08:01:51;4.88;;;1.10;;
32321;SDS011;61553;48.994;8.940;2023-04-24T08:04:16;4.65;;;1.13;;
32321;SDS011;61553;48.994;8.940;2023-04-24T08:06:43;2.90;;;0.93;;
32321;SDS011;61553;48.994;8.940;2023-04-24T08:09:08;2.90;;;1.23;;
32321;SDS011;61553;48.994;8.940;2023-04-24T08:11:34;3.53;;;1.17;;
32321;SDS011;61553;48.994;8.940;2023-04-24T08:14:00;2.28;;;1.00;;
32321;SDS011;61553;48.994;8.940;2023-04-24T08:16:26;1.75;;;0.80;;
32321;SDS011;61553;48.994;8.940;2023-04-24T08:18:52;2.10;;;0.90;;
32321;SDS011;61553;48.994;8.940;2023-04-24T08:21:18;2.13;;;0.98;;
32321;SDS011;61553;48.994;8.940;2023-04-24T08:23:45;5.20;;;1.38;;
32321;SDS011;61553;48.994;8.940;2023-04-24T08:26:11;3.42;;;1.13;;
32321;SDS011;61553;48.994;8.940;2023-04-24T08:28:38;3.22;;;0.90;;
32321;SDS011;61553;48.994;8.940;2023-04-24T08:31:04;4.43;;;1.20;;
32321;SDS011;61553;48.994;8.940;2023-04-24T08:33:29;3.20;;;1.17;;
32321;SDS011;61553;48.994;8.940;2023-04-24T08:35:59;2.38;;;0.85;;
32321;SDS011;61553;48.994;8.940;2023-04-24T08:38:26;5.00;;;1.20;;
32321;SDS011;61553;48.994;8.940;2023-04-24T08:40:52;4.85;;;1.23;;
32321;SDS011;61553;48.994;8.940;2023-04-24T08:43:18;3.25;;;1.20;;
32321;SDS011;61553;48.994;8.940;2023-04-24T08:45:46;3.53;;;1.30;;
32321;SDS011;61553;48.994;8.940;2023-04-24T08:48:12;2.85;;;1.15;;
32321;SDS011;61553;48.994;8.940;2023-04-24T08:50:38;3.65;;;1.05;;
32321;SDS011;61553;48.994;8.940;2023-04-24T08:53:07;4.05;;;0.88;;
32321;SDS011;61553;48.994;8.940;2023-04-24T08:55:34;1.63;;;0.80;;
32321;SDS011;61553;48.994;8.940;2023-04-24T08:58:00;1.83;;;0.80;;
32321;SDS011;61553;48.994;8.940;2023-04-24T09:00:27;3.95;;;1.20;;
32321;SDS011;61553;48.994;8.940;2023-04-24T09:02:54;2.10;;;1.13;;
32321;SDS011;61553;48.994;8.940;2023-04-24T09:05:21;1.95;;;0.80;;
32321;SDS011;61553;48.994;8.940;2023-04-24T09:07:49;3.00;;;0.93;;
32321;SDS011;61553;48.994;8.940;2023-04-24T09:10:20;5.45;;;1.38;;
32321;SDS011;61553;48.994;8.940;2023-04-24T09:12:46;2.78;;;1.00;;
32321;SDS011;61553;48.994;8.940;2023-04-24T09:15:12;7.07;;;1.08;;
32321;SDS011;61553;48.994;8.940;2023-04-24T09:17:38;3.45;;;1.20;;
32321;SDS011;61553;48.994;8.940;2023-04-24T09:20:04;2.92;;;1.17;;
32321;SDS011;61553;48.994;8.940;2023-04-24T09:22:30;10.90;;;1.42;;
32321;SDS011;61553;48.994;8.940;2023-04-24T09:25:03;4.82;;;1.50;;
32321;SDS011;61553;48.994;8.940;2023-04-24T09:27:31;1.42;;;0.85;;
32321;SDS011;61553;48.994;8.940;2023-04-24T09:29:57;3.38;;;1.30;;
32321;SDS011;61553;48.994;8.940;2023-04-24T09:32:24;2.00;;;1.10;;
32321;SDS011;61553;48.994;8.940;2023-04-24T09:35:04;4.22;;;1.27;;
32321;SDS011;61553;48.994;8.940;2023-04-24T09:37:34;4.32;;;1.30;;
32321;SDS011;61553;48.994;8.940;2023-04-24T09:40:17;1.60;;;0.90;;
32321;SDS011;61553;48.994;8.940;2023-04-24T09:42:46;2.85;;;0.85;;
32321;SDS011;61553;48.994;8.940;2023-04-24T09:45:19;2.67;;;1.20;;
32321;SDS011;61553;48.994;8.940;2023-04-24T09:47:45;2.40;;;1.13;;
32321;SDS011;61553;48.994;8.940;2023-04-24T09:52:44;3.85;;;1.00;;
32321;SDS011;61553;48.994;8.940;2023-04-24T09:55:13;4.10;;;0.98;;
32321;SDS011;61553;48.994;8.940;2023-04-24T09:57:48;2.58;;;1.00;;
32321;SDS011;61553;48.994;8.940;2023-04-24T10:00:19;3.47;;;1.23;;
32321;SDS011;61553;48.994;8.940;2023-04-24T10:03:01;3.97;;;1.42;;
32321;SDS011;61553;48.994;8.940;2023-04-24T10:05:34;2.60;;;1.45;;
32321;SDS011;61553;48.994;8.940;2023-04-24T10:08:04;2.33;;;1.00;;
32321;SDS011;61553;48.994;8.940;2023-04-24T10:10:36;4.47;;;1.52;;
32321;SDS011;61553;48.994;8.940;2023-04-24T10:13:07;3.22;;;1.02;;
32321;SDS011;61553;48.994;8.940;2023-04-24T10:15:35;3.38;;;1.50;;
32321;SDS011;61553;48.994;8.940;2023-04-24T10:18:05;3.00;;;1.42;;
32321;SDS011;61553;48.994;8.940;2023-04-24T10:20:32;3.20;;;1.48;;
32321;SDS011;61553;48.994;8.940;2023-04-24T10:23:00;5.60;;;1.80;;
32321;SDS011;61553;48.994;8.940;2023-04-24T10:25:26;5.68;;;1.58;;
32321;SDS011;61553;48.994;8.940;2023-04-24T10:27:54;5.28;;;1.83;;
32321;SDS011;61553;48.994;8.940;2023-04-24T10:30:25;5.05;;;1.65;;
32321;SDS011;61553;48.994;8.940;2023-04-24T10:32:52;2.72;;;1.40;;
32321;SDS011;61553;48.994;8.940;2023-04-24T10:35:17;3.53;;;1.67;;
32321;SDS011;61553;48.994;8.940;2023-04-24T10:37:48;3.08;;;1.65;;
32321;SDS011;61553;48.994;8.940;2023-04-24T10:40:17;3.78;;;1.80;;
32321;SDS011;61553;48.994;8.940;2023-04-24T10:42:46;3.20;;;1.58;;
32321;SDS011;61553;48.994;8.940;2023-04-24T10:45:17;3.72;;;1.70;;
32321;SDS011;61553;48.994;8.940;2023-04-24T10:48:05;3.30;;;1.67;;
32321;SDS011;61553;48.994;8.940;2023-04-24T10:50:43;4.57;;;1.73;;
32321;SDS011;61553;48.994;8.940;2023-04-24T10:53:17;2.83;;;1.38;;
32321;SDS011;61553;48.994;8.940;2023-04-24T10:55:48;2.55;;;1.40;;
32321;SDS011;61553;48.994;8.940;2023-04-24T10:58:15;6.13;;;1.70;;
32321;SDS011;61553;48.994;8.940;2023-04-24T11:00:56;2.45;;;1.30;;
32321;SDS011;61553;48.994;8.940;2023-04-24T11:03:24;2.88;;;1.52;;
32321;SDS011;61553;48.994;8.940;2023-04-24T11:08:39;5.28;;;1.95;;
32321;SDS011;61553;48.994;8.940;2023-04-24T11:22:00;3.70;;;1.90;;
32321;SDS011;61553;48.994;8.940;2023-04-24T11:24:31;4.50;;;1.80;;
32321;SDS011;61553;48.994;8.940;2023-04-24T11:29:38;4.17;;;1.60;;
32321;SDS011;61553;48.994;8.940;2023-04-24T11:32:14;5.70;;;1.70;;
32321;SDS011;61553;48.994;8.940;2023-04-24T11:34:40;3.00;;;1.45;;
32321;SDS011;61553;48.994;8.940;2023-04-24T11:37:06;3.80;;;1.60;;
32321;SDS011;61553;48.994;8.940;2023-04-24T11:39:36;4.32;;;1.80;;
32321;SDS011;61553;48.994;8.940;2023-04-24T11:42:03;5.18;;;2.28;;
32321;SDS011;61553;48.994;8.940;2023-04-24T11:44:31;4.47;;;2.10;;
32321;SDS011;61553;48.994;8.940;2023-04-24T11:46:58;3.72;;;2.03;;
32321;SDS011;61553;48.994;8.940;2023-04-24T11:49:24;2.75;;;1.75;;
32321;SDS011;61553;48.994;8.940;2023-04-24T11:51:52;3.67;;;2.10;;
32321;SDS011;61553;48.994;8.940;2023-04-24T11:54:20;4.70;;;2.00;;
32321;SDS011;61553;48.994;8.940;2023-04-24T11:56:46;5.47;;;2.20;;
32321;SDS011;61553;48.994;8.940;2023-04-24T11:59:12;5.90;;;2.20;;
32321;SDS011;61553;48.994;8.940;2023-04-24T12:01:45;3.67;;;2.00;;
32321;SDS011;61553;48.994;8.940;2023-04-24T12:04:12;6.35;;;2.30;;
32321;SDS011;61553;48.994;8.940;2023-04-24T12:06:39;5.22;;;2.13;;
32321;SDS011;61553;48.994;8.940;2023-04-24T12:09:04;3.85;;;2.10;;
32321;SDS011;61553;48.994;8.940;2023-04-24T12:11:31;4.05;;;1.60;;
32321;SDS011;61553;48.994;8.940;2023-04-24T12:13:57;6.03;;;2.70;;
32321;SDS011;61553;48.994;8.940;2023-04-24T12:16:22;3.40;;;1.88;;
32321;SDS011;61553;48.994;8.940;2023-04-24T12:18:50;3.50;;;1.67;;
32321;SDS011;61553;48.994;8.940;2023-04-24T12:21:20;5.55;;;1.98;;
32321;SDS011;61553;48.994;8.940;2023-04-24T12:23:47;6.10;;;2.42;;
32321;SDS011;61553;48.994;8.940;2023-04-24T12:26:19;4.97;;;2.55;;
32321;SDS011;61553;48.994;8.940;2023-04-24T12:28:48;6.95;;;2.33;;
32321;SDS011;61553;48.994;8.940;2023-04-24T12:31:17;5.80;;;3.00;;
32321;SDS011;61553;48.994;8.940;2023-04-24T12:33:46;5.40;;;3.13;;
32321;SDS011;61553;48.994;8.940;2023-04-24T12:36:11;5.32;;;3.58;;
32321;SDS011;61553;48.994;8.940;2023-04-24T12:38:37;4.78;;;3.03;;
32321;SDS011;61553;48.994;8.940;2023-04-24T12:41:09;6.00;;;3.60;;
32321;SDS011;61553;48.994;8.940;2023-04-24T12:43:37;5.43;;;3.45;;
32321;SDS011;61553;48.994;8.940;2023-04-24T12:46:03;8.15;;;3.05;;
32321;SDS011;61553;48.994;8.940;2023-04-24T12:48:30;6.07;;;2.95;;
32321;SDS011;61553;48.994;8.940;2023-04-24T12:50:59;10.40;;;3.90;;
32321;SDS011;61553;48.994;8.940;2023-04-24T12:53:28;7.30;;;3.53;;
32321;SDS011;61553;48.994;8.940;2023-04-24T12:55:59;7.72;;;3.72;;
32321;SDS011;61553;48.994;8.940;2023-04-24T12:58:25;7.03;;;3.40;;
32321;SDS011;61553;48.994;8.940;2023-04-24T13:00:51;6.90;;;3.72;;
32321;SDS011;61553;48.994;8.940;2023-04-24T13:03:16;5.05;;;3.25;;
32321;SDS011;61553;48.994;8.940;2023-04-24T13:05:42;5.90;;;3.40;;
32321;SDS011;61553;48.994;8.940;2023-04-24T13:08:08;7.97;;;3.17;;
32321;SDS011;61553;48.994;8.940;2023-04-24T13:10:34;6.32;;;2.97;;
32321;SDS011;61553;48.994;8.940;2023-04-24T13:13:00;6.75;;;3.50;;
32321;SDS011;61553;48.994;8.940;2023-04-24T13:15:26;4.68;;;2.95;;
32321;SDS011;61553;48.994;8.940;2023-04-24T13:17:51;8.18;;;3.20;;
32321;SDS011;61553;48.994;8.940;2023-04-24T13:20:17;4.55;;;2.92;;
32321;SDS011;61553;48.994;8.940;2023-04-24T13:22:43;5.80;;;2.90;;
32321;SDS011;61553;48.994;8.940;2023-04-24T13:25:09;5.30;;;2.80;;
32321;SDS011;61553;48.994;8.940;2023-04-24T13:27:35;5.57;;;2.60;;
32321;SDS011;61553;48.994;8.940;2023-04-24T13:30:03;5.15;;;2.60;;
32321;SDS011;61553;48.994;8.940;2023-04-24T13:32:28;6.32;;;2.70;;
32321;SDS011;61553;48.994;8.940;2023-04-24T13:34:54;5.25;;;2.78;;
32321;SDS011;61553;48.994;8.940;2023-04-24T13:37:21;10.15;;;2.65;;
32321;SDS011;61553;48.994;8.940;2023-04-24T13:39:47;6.95;;;2.47;;
32321;SDS011;61553;48.994;8.940;2023-04-24T13:42:13;6.18;;;2.38;;
32321;SDS011;61553;48.994;8.940;2023-04-24T13:44:39;4.60;;;2.53;;
32321;SDS011;61553;48.994;8.940;2023-04-24T13:47:05;5.07;;;2.35;;
32321;SDS011;61553;48.994;8.940;2023-04-24T13:49:31;5.10;;;2.33;;
32321;SDS011;61553;48.994;8.940;2023-04-24T13:51:56;3.45;;;2.05;;
32321;SDS011;61553;48.994;8.940;2023-04-24T13:54:22;4.28;;;1.95;;
32321;SDS011;61553;48.994;8.940;2023-04-24T13:56:50;4.25;;;2.35;;
32321;SDS011;61553;48.994;8.940;2023-04-24T13:59:16;4.72;;;2.35;;
32321;SDS011;61553;48.994;8.940;2023-04-24T14:01:42;5.45;;;2.60;;
32321;SDS011;61553;48.994;8.940;2023-04-24T14:04:09;9.63;;;3.17;;
32321;SDS011;61553;48.994;8.940;2023-04-24T14:06:35;5.60;;;3.38;;
32321;SDS011;61553;48.994;8.940;2023-04-24T14:09:01;4.32;;;2.97;;
32321;SDS011;61553;48.994;8.940;2023-04-24T14:11:27;6.45;;;3.47;;
32321;SDS011;61553;48.994;8.940;2023-04-24T14:13:54;4.93;;;3.00;;
32321;SDS011;61553;48.994;8.940;2023-04-24T14:16:21;6.43;;;2.85;;
32321;SDS011;61553;48.994;8.940;2023-04-24T14:18:47;5.90;;;3.53;;
32321;SDS011;61553;48.994;8.940;2023-04-24T14:21:12;6.28;;;3.53;;
32321;SDS011;61553;48.994;8.940;2023-04-24T14:23:38;5.55;;;3.53;;
32321;SDS011;61553;48.994;8.940;2023-04-24T14:26:04;5.47;;;3.05;;
32321;SDS011;61553;48.994;8.940;2023-04-24T14:28:29;4.43;;;2.50;;
32321;SDS011;61553;48.994;8.940;2023-04-24T14:30:55;5.90;;;2.88;;
32321;SDS011;61553;48.994;8.940;2023-04-24T14:33:21;5.80;;;2.78;;
32321;SDS011;61553;48.994;8.940;2023-04-24T14:35:46;5.82;;;2.85;;
32321;SDS011;61553;48.994;8.940;2023-04-24T14:38:12;6.93;;;2.90;;
32321;SDS011;61553;48.994;8.940;2023-04-24T14:40:38;6.55;;;2.63;;
32321;SDS011;61553;48.994;8.940;2023-04-24T14:43:04;6.28;;;2.55;;
32321;SDS011;61553;48.994;8.940;2023-04-24T14:45:30;4.78;;;2.10;;
32321;SDS011;61553;48.994;8.940;2023-04-24T14:47:56;6.22;;;2.25;;
32321;SDS011;61553;48.994;8.940;2023-04-24T14:50:22;6.53;;;2.00;;
32321;SDS011;61553;48.994;8.940;2023-04-24T14:52:48;5.22;;;2.15;;
32321;SDS011;61553;48.994;8.940;2023-04-24T14:55:13;6.05;;;2.00;;
32321;SDS011;61553;48.994;8.940;2023-04-24T14:57:39;8.40;;;2.42;;
32321;SDS011;61553;48.994;8.940;2023-04-24T15:00:05;4.22;;;2.08;;
32321;SDS011;61553;48.994;8.940;2023-04-24T15:02:34;6.53;;;2.00;;
32321;SDS011;61553;48.994;8.940;2023-04-24T15:05:02;4.00;;;1.60;;